Accueil
METAR-TAF:

METAR-TAF

Aéroports :

Angoulême, France

Aéroport international Angoulême-Cognac

latitude: 45-43-46N, longitude: 00-13-08E, altitude: 132 m

Observation

Le bulletin a été fait il y a 36 minutes, à 19:00 UTC
Vent 9 kt de nord-est
Température 23°C
Humidité 57%
Pression 1020 hPa
Visibilité 10 km ou plus
pas de nuages en-dessous de 1500 mètres et pas de cumulonimbus.

METAR: LFBU 241900Z AUTO 04009KT CAVOK 23/14 Q1020 NOSIG

Heure: 21:36 (19:36 UTC)

Prévision

Le bulletin a été fait il y a 2 heures et 36 minutes, à 17:00 UTC
Prévision valable du 24 à 18 UTC au 25 à 18 UTC
Vent 10 kt de est/nord-est
Visibilité 10 km ou plus
pas de nuages en-dessous de 1500 mètres et pas de cumulonimbus.

TAF: LFBU 241700Z 2418/2518 07010KT CAVOK

Observations et prévisions météorologiques de plus de 4000 aéroports (messages METAR et TAF).

Les stations disponibles sont représentées par des disques jaunes et rouges sur la carte.

Passer la souris dessus pour voir le nom de la station.

Cliquer dessus pour voir les observations et prévisions météorologiques.

Pour changer de carte: cliquez sur les boutons verts avec une croix noire pour zoomer, sur le bouton vert avec un tiret pour effectuer un zoom arrière, ou sur les flèches vertes pour les cartes adjacentes.


METAR-TAF: